Flagstaff, Arizona
Current Conditions -  °F | °C
As of 10:57 AM on Monday 20 Oct 2014 (Local Time) from KFLG Reporting Station
Clear Clear  
Wind Chill: 59°   Ceiling: Unl
Heat Index: 59°   Visibility: 10mi
Dew Point: 38°   Wind: 0mph
Humidity: 46%   Direction: NA
Pressure: 30.22"   Gusts: NA
Location:  35.2°N, 111.65°W
Report Text: KFLG 201757Z 00000KT 10SM CLR 15/03 A3022 RMK AO2 SLP168 T01500033 10156 20006 50001
Loading
Personal Weather Stations






























Interactive Weather Map New forecast layout! Learn more

10-Day Weather Forecast

Advertisements
Track Severe Weather on mobile